Terminal Aerodrome Forecast
Issued by NWS Springfield, MO

Home | Current Version | Previous Version | Text Only | Print | Product List | Glossary On
Versions: 1 2 3 4 5 6 7 8 9 10 11 12 13 14 15 16 17 18 19 20 21 22 23 24 25 26
000
FTUS43 KSGF 240520
TAFSGF
TAF
KSGF 240520Z 2406/2506 19010G20KT P6SM VCSH SCT100 WS020/22045KT
     FM240900 23011G20KT P6SM SCT050 BKN100
     FM241100 29010KT P6SM OVC035
     FM241600 30015G22KT P6SM OVC025=

USA.gov is the U.S. government's official web portal to all federal, state and local government web resources and services.